Time,TemperatureF,DewpointF,PressureIn,WindDirection,WindDirectionDegrees,WindSpeedMPH,WindSpeedGustMPH,Humidity,HourlyPrecipIn,Conditions,Clouds,dailyrainin,SoftwareType,DateUTC
2013-04-20 00:03:00,47.1,46.0,30.17,WSW,240,0.0,2.0,97,0.00,,,0.00,weatherlink.com 1.10,2013-04-20 07:03:00,
2013-04-20 00:18:00,46.6,46.0,30.18,SSE,168,0.0,2.0,97,0.00,,,0.00,weatherlink.com 1.10,2013-04-20 07:18:00,
2013-04-20 00:33:00,46.3,46.0,30.18,SSE,148,0.0,1.0,97,0.00,,,0.00,weatherlink.com 1.10,2013-04-20 07:33:00,
2013-04-20 00:48:00,46.3,46.0,30.19,SSE,150,0.0,0.0,98,0.00,,,0.00,weatherlink.com 1.10,2013-04-20 07:48:00,
2013-04-20 01:03:00,46.5,46.0,30.19,SSW,204,0.0,0.0,98,0.00,,,0.00,weatherlink.com 1.10,2013-04-20 08:03:00,
2013-04-20 01:18:00,46.7,46.0,30.19,SE,139,0.0,1.0,98,0.00,,,0.00,weatherlink.com 1.10,2013-04-20 08:18:00,
2013-04-20 01:33:00,46.7,46.0,30.19,SE,145,0.0,1.0,98,0.00,,,0.00,weatherlink.com 1.10,2013-04-20 08:33:00,
2013-04-20 01:48:00,46.6,46.0,30.18,SSW,205,0.0,1.0,97,0.00,,,0.00,weatherlink.com 1.10,2013-04-20 08:48:00,
2013-04-20 02:04:00,45.9,45.0,30.18,SE,136,0.0,3.0,97,0.00,,,0.00,weatherlink.com 1.10,2013-04-20 09:04:00,
2013-04-20 02:19:00,45.3,45.0,30.18,SSW,211,0.0,1.0,98,0.00,,,0.00,weatherlink.com 1.10,2013-04-20 09:19:00,
2013-04-20 02:34:00,45.0,45.0,30.19,East,96,0.0,1.0,98,0.00,,,0.00,weatherlink.com 1.10,2013-04-20 09:34:00,
2013-04-20 02:49:00,44.7,44.0,30.19,SW,235,0.0,0.0,98,0.00,,,0.00,weatherlink.com 1.10,2013-04-20 09:49:00,
2013-04-20 03:04:00,44.2,44.0,30.19,SSE,160,0.0,0.0,98,0.00,,,0.00,weatherlink.com 1.10,2013-04-20 10:04:00,
2013-04-20 03:19:00,43.8,43.0,30.19,SSW,208,0.0,1.0,98,0.00,,,0.00,weatherlink.com 1.10,2013-04-20 10:19:00,
2013-04-20 03:34:00,43.6,43.0,30.19,SSW,208,0.0,0.0,98,0.00,,,0.00,weatherlink.com 1.10,2013-04-20 10:34:00,
2013-04-20 03:49:00,43.3,43.0,30.19,SSW,208,0.0,0.0,98,0.00,,,0.00,weatherlink.com 1.10,2013-04-20 10:49:00,
2013-04-20 04:04:00,43.2,43.0,30.20,South,181,0.0,1.0,98,0.00,,,0.00,weatherlink.com 1.10,2013-04-20 11:04:00,
2013-04-20 04:19:00,43.1,43.0,30.20,SW,221,0.0,1.0,98,0.00,,,0.00,weatherlink.com 1.10,2013-04-20 11:19:00,
2013-04-20 04:34:00,42.8,42.0,30.20,South,179,0.0,0.0,98,0.00,,,0.00,weatherlink.com 1.10,2013-04-20 11:34:00,
2013-04-20 04:49:00,42.4,42.0,30.21,South,179,0.0,0.0,98,0.00,,,0.00,weatherlink.com 1.10,2013-04-20 11:49:00,
2013-04-20 05:04:00,41.9,41.0,30.21,South,179,0.0,0.0,98,0.00,,,0.00,weatherlink.com 1.10,2013-04-20 12:04:00,
2013-04-20 05:19:00,42.0,42.0,30.21,South,179,0.0,0.0,99,0.00,,,0.00,weatherlink.com 1.10,2013-04-20 12:19:00,
2013-04-20 05:34:00,42.4,42.0,30.21,SSW,205,0.0,1.0,99,0.01,,,0.01,weatherlink.com 1.10,2013-04-20 12:34:00,
2013-04-20 05:49:00,42.7,43.0,30.22,SSW,205,0.0,0.0,99,0.01,,,0.01,weatherlink.com 1.10,2013-04-20 12:49:00,
2013-04-20 06:04:00,43.1,43.0,30.22,SSW,205,0.0,0.0,99,0.01,,,0.01,weatherlink.com 1.10,2013-04-20 13:04:00,
2013-04-20 06:19:00,43.3,43.0,30.22,SSW,197,0.0,0.0,98,0.01,,,0.01,weatherlink.com 1.10,2013-04-20 13:19:00,
2013-04-20 06:34:00,43.7,43.0,30.22,SSE,163,0.0,1.0,98,0.00,,,0.01,weatherlink.com 1.10,2013-04-20 13:34:00,
2013-04-20 06:49:00,44.0,44.0,30.22,SSW,210,0.0,2.0,98,0.00,,,0.01,weatherlink.com 1.10,2013-04-20 13:49:00,
2013-04-20 07:04:00,44.3,44.0,30.22,SSE,162,0.0,1.0,98,0.00,,,0.01,weatherlink.com 1.10,2013-04-20 14:04:00,
2013-04-20 07:19:00,44.7,44.0,30.23,SE,139,0.0,1.0,98,0.00,,,0.01,weatherlink.com 1.10,2013-04-20 14:19:00,
2013-04-20 07:34:00,45.1,45.0,30.23,NNW,330,0.0,1.0,98,0.00,,,0.01,weatherlink.com 1.10,2013-04-20 14:34:00,
2013-04-20 07:49:00,45.3,45.0,30.23,ESE,123,0.0,1.0,98,0.00,,,0.01,weatherlink.com 1.10,2013-04-20 14:49:00,
2013-04-20 08:04:00,45.5,45.0,30.23,SSW,210,0.0,1.0,98,0.00,,,0.01,weatherlink.com 1.10,2013-04-20 15:04:00,
2013-04-20 08:19:00,45.8,45.0,30.23,SE,131,1.0,1.0,98,0.00,,,0.01,weatherlink.com 1.10,2013-04-20 15:19:00,
2013-04-20 08:34:00,46.3,46.0,30.23,SSE,148,0.0,0.0,98,0.00,,,0.01,weatherlink.com 1.10,2013-04-20 15:34:00,
2013-04-20 08:49:00,47.1,47.0,30.23,SSW,200,0.0,0.0,98,0.00,,,0.01,weatherlink.com 1.10,2013-04-20 15:49:00,
2013-04-20 09:04:00,47.2,46.0,30.24,SSE,158,0.0,2.0,97,0.00,,,0.01,weatherlink.com 1.10,2013-04-20 16:04:00,
2013-04-20 09:19:00,47.3,46.0,30.24,SW,229,0.0,1.0,96,0.00,,,0.01,weatherlink.com 1.10,2013-04-20 16:19:00,
2013-04-20 09:34:00,47.6,47.0,30.24,SSE,155,0.0,2.0,96,0.00,,,0.01,weatherlink.com 1.10,2013-04-20 16:34:00,
2013-04-20 09:49:00,47.9,47.0,30.24,WSW,240,0.0,3.0,96,0.00,,,0.01,weatherlink.com 1.10,2013-04-20 16:49:00,
2013-04-20 10:04:00,48.7,48.0,30.24,East,88,0.0,1.0,96,0.00,,,0.01,weatherlink.com 1.10,2013-04-20 17:04:00,
2013-04-20 10:19:00,49.0,48.0,30.25,SSE,160,0.0,2.0,96,0.00,,,0.01,weatherlink.com 1.10,2013-04-20 17:19:00,
2013-04-20 10:34:00,49.7,48.0,30.25,SE,129,0.0,2.0,94,0.00,,,0.01,weatherlink.com 1.10,2013-04-20 17:34:00,
2013-04-20 10:49:00,49.9,48.0,30.25,WSW,246,0.0,1.0,93,0.00,,,0.01,weatherlink.com 1.10,2013-04-20 17:49:00,
2013-04-20 11:04:00,50.1,49.0,30.26,NE,41,2.0,4.0,94,0.00,,,0.01,weatherlink.com 1.10,2013-04-20 18:04:00,
2013-04-20 11:20:00,50.7,49.0,30.26,ESE,115,0.0,3.0,93,0.00,,,0.01,weatherlink.com 1.10,2013-04-20 18:20:00,
2013-04-20 11:35:00,51.3,49.0,30.26,NE,41,1.0,3.0,92,0.00,,,0.01,weatherlink.com 1.10,2013-04-20 18:35:00,
2013-04-20 11:50:00,52.3,50.0,30.26,NE,44,2.0,4.0,90,0.00,,,0.01,weatherlink.com 1.10,2013-04-20 18:50:00,
2013-04-20 12:05:00,52.5,49.0,30.26,NE,47,1.0,4.0,89,0.00,,,0.01,weatherlink.com 1.10,2013-04-20 19:05:00,
2013-04-20 12:20:00,52.9,49.0,30.26,NE,38,1.0,2.0,87,0.00,,,0.01,weatherlink.com 1.10,2013-04-20 19:20:00,
2013-04-20 12:35:00,53.8,49.0,30.26,ESE,112,3.0,6.0,84,0.00,,,0.01,weatherlink.com 1.10,2013-04-20 19:35:00,
2013-04-20 12:50:00,53.7,49.0,30.25,ESE,110,2.0,4.0,83,0.00,,,0.01,weatherlink.com 1.10,2013-04-20 19:50:00,
2013-04-20 13:06:00,54.4,49.0,30.25,SSE,158,1.0,3.0,82,0.00,,,0.01,weatherlink.com 1.10,2013-04-20 20:06:00,
2013-04-20 13:20:00,55.2,49.0,30.24,ESE,113,1.0,3.0,79,0.00,,,0.01,weatherlink.com 1.10,2013-04-20 20:20:00,
2013-04-20 13:35:00,55.7,49.0,30.24,South,191,1.0,5.0,79,0.00,,,0.01,weatherlink.com 1.10,2013-04-20 20:35:00,
2013-04-20 13:50:00,57.1,49.0,30.23,East,89,3.0,7.0,75,0.00,,,0.01,weatherlink.com 1.10,2013-04-20 20:50:00,
2013-04-20 14:05:00,57.4,48.0,30.23,SE,143,2.0,6.0,72,0.00,,,0.01,weatherlink.com 1.10,2013-04-20 21:05:00,
2013-04-20 14:20:00,57.9,48.0,30.23,SSE,163,5.0,8.0,70,0.00,,,0.01,weatherlink.com 1.10,2013-04-20 21:20:00,
2013-04-20 14:50:00,58.9,48.0,30.22,SSE,149,0.0,4.0,67,0.00,,,0.01,weatherlink.com 1.10,2013-04-20 21:50:00,
2013-04-20 15:05:00,58.9,49.0,30.23,SE,133,1.0,5.0,69,0.00,,,0.01,weatherlink.com 1.10,2013-04-20 22:05:00,
2013-04-20 15:20:00,58.8,49.0,30.23,SSE,151,5.0,6.0,70,0.00,,,0.01,weatherlink.com 1.10,2013-04-20 22:20:00,
2013-04-20 15:35:00,58.1,50.0,30.23,SW,218,0.0,1.0,75,0.00,,,0.01,weatherlink.com 1.10,2013-04-20 22:35:00,
2013-04-20 15:50:00,56.2,50.0,30.22,SE,133,2.0,3.0,80,0.01,,,0.02,weatherlink.com 1.10,2013-04-20 22:50:00,
2013-04-20 16:05:00,56.2,50.0,30.22,SE,139,0.0,2.0,80,0.01,,,0.02,weatherlink.com 1.10,2013-04-20 23:05:00,
2013-04-20 16:20:00,56.1,50.0,30.21,ESE,120,0.0,4.0,81,0.01,,,0.02,weatherlink.com 1.10,2013-04-20 23:20:00,
2013-04-20 16:35:00,56.3,50.0,30.21,SSE,148,1.0,4.0,79,0.01,,,0.02,weatherlink.com 1.10,2013-04-20 23:35:00,
2013-04-20 16:50:00,56.9,50.0,30.20,SSE,158,0.0,1.0,79,0.00,,,0.02,weatherlink.com 1.10,2013-04-20 23:50:00,
2013-04-20 17:05:00,57.6,51.0,30.21,NNE,17,0.0,5.0,78,0.00,,,0.02,weatherlink.com 1.10,2013-04-21 00:05:00,
2013-04-20 17:20:00,56.6,49.0,30.21,SE,131,4.0,7.0,75,0.00,,,0.02,weatherlink.com 1.10,2013-04-21 00:20:00,
2013-04-20 17:35:00,55.6,51.0,30.21,SW,215,0.0,6.0,83,0.00,,,0.02,weatherlink.com 1.10,2013-04-21 00:35:00,
2013-04-20 17:50:00,54.5,51.0,30.21,SW,224,0.0,1.0,87,0.00,,,0.02,weatherlink.com 1.10,2013-04-21 00:50:00,
2013-04-20 18:05:00,53.2,50.0,30.21,NE,41,1.0,4.0,88,0.00,,,0.02,weatherlink.com 1.10,2013-04-21 01:05:00,
2013-04-20 18:20:00,52.1,49.0,30.21,NE,43,3.0,4.0,90,0.00,,,0.02,weatherlink.com 1.10,2013-04-21 01:20:00,
2013-04-20 18:35:00,51.4,49.0,30.21,NE,41,2.0,4.0,91,0.00,,,0.02,weatherlink.com 1.10,2013-04-21 01:35:00,
2013-04-20 18:50:00,51.1,49.0,30.21,NNW,334,3.0,5.0,92,0.01,,,0.03,weatherlink.com 1.10,2013-04-21 01:50:00,
2013-04-20 19:05:00,50.6,48.0,30.21,NNW,336,0.0,5.0,92,0.01,,,0.03,weatherlink.com 1.10,2013-04-21 02:05:00,
2013-04-20 19:20:00,50.5,48.0,30.22,NNE,12,1.0,4.0,92,0.01,,,0.03,weatherlink.com 1.10,2013-04-21 02:20:00,
2013-04-20 19:35:00,50.3,48.0,30.22,North,356,0.0,4.0,92,0.01,,,0.03,weatherlink.com 1.10,2013-04-21 02:35:00,
2013-04-20 19:50:00,50.1,48.0,30.23,WSW,240,0.0,4.0,93,0.00,,,0.03,weatherlink.com 1.10,2013-04-21 02:50:00,
2013-04-20 20:05:00,50.0,48.0,30.23,NE,47,0.0,1.0,93,0.00,,,0.03,weatherlink.com 1.10,2013-04-21 03:05:00,
2013-04-20 20:20:00,49.7,48.0,30.23,East,101,0.0,1.0,93,0.00,,,0.03,weatherlink.com 1.10,2013-04-21 03:20:00,
2013-04-20 20:35:00,49.6,48.0,30.23,East,101,0.0,1.0,93,0.00,,,0.03,weatherlink.com 1.10,2013-04-21 03:35:00,
2013-04-20 20:50:00,49.5,47.0,30.23,East,101,0.0,4.0,92,0.00,,,0.03,weatherlink.com 1.10,2013-04-21 03:50:00,
2013-04-20 21:05:00,49.4,48.0,30.24,East,79,1.0,1.0,93,0.00,,,0.03,weatherlink.com 1.10,2013-04-21 04:05:00,
2013-04-20 21:20:00,49.2,47.0,30.24,ENE,77,0.0,1.0,93,0.00,,,0.03,weatherlink.com 1.10,2013-04-21 04:20:00,
2013-04-20 21:35:00,48.9,47.0,30.24,ESE,122,2.0,3.0,93,0.00,,,0.03,weatherlink.com 1.10,2013-04-21 04:35:00,
2013-04-20 21:50:00,48.6,47.0,30.25,SSW,193,0.0,4.0,93,0.00,,,0.03,weatherlink.com 1.10,2013-04-21 04:50:00,
2013-04-20 22:05:00,48.6,46.0,30.25,SW,215,0.0,3.0,92,0.00,,,0.03,weatherlink.com 1.10,2013-04-21 05:05:00,
2013-04-20 22:20:00,48.7,47.0,30.25,ESE,105,1.0,5.0,92,0.00,,,0.03,weatherlink.com 1.10,2013-04-21 05:20:00,
2013-04-20 22:35:00,48.5,47.0,30.25,SE,143,0.0,2.0,93,0.00,,,0.03,weatherlink.com 1.10,2013-04-21 05:35:00,
2013-04-20 22:50:00,48.4,46.0,30.25,South,174,1.0,4.0,90,0.00,,,0.03,weatherlink.com 1.10,2013-04-21 05:50:00,
2013-04-20 23:05:00,48.3,46.0,30.25,South,172,0.0,0.0,90,0.00,,,0.03,weatherlink.com 1.10,2013-04-21 06:05:00,
2013-04-20 23:20:00,48.2,46.0,30.25,SSE,150,2.0,3.0,90,0.00,,,0.03,weatherlink.com 1.10,2013-04-21 06:20:00,
2013-04-20 23:35:00,48.0,45.0,30.25,SE,139,1.0,5.0,89,0.00,,,0.03,weatherlink.com 1.10,2013-04-21 06:35:00,
2013-04-20 23:50:00,47.7,45.0,30.25,SSE,165,0.0,4.0,90,0.00,,,0.03,weatherlink.com 1.10,2013-04-21 06:50:00,